Portada
METAR-TAF:

METAR-TAF

Aeropuertos :

Mécheria, Argelia

latitud: 34-56N, longitud: 000-26W, altitud: 1149 m

Observación

El informe se hizo hace 1 hora y 42 minutos, a las 00:00 UTC
Viento 6 kt del oeste-noroeste
Temperatura 17°C
Humedad 55%
Presión 1021 hPa
Visibilidad 10 km o más
Nubes dispersas a una altura de 3000 ft

METAR: DAAY 230000Z 29006KT 9999 SCT030 17/08 Q1021

Hora: 02:42 (01:42 UTC)

Pronóstico

El informe se hizo hace 2 horas y 42 minutos, a las 23:00 UTC
Pronóstico válido del 23 a las 00 UTC al 23 a las 09 UTC
Viento 10 kt del sureste
Visibilidad 10 km o más
Escasas nubes a una altura de 3000 ft

TAF: DAAY 222300Z 2300/2309 14010KT 9999 FEW030

Observaciones y pronósticos meteorológicos de más de 4000 aeropuertos (mensajes METAR y TAF).

Los puntos amarillos y rojos representan las estaciones disponibles.

Ponga el ratón en el punto deseado para ver el nombre de la estación.

Haga clic para ver las observaciones y los pronósticos meteorológicos.

Para cambiar el mapa : haga clic en los botones verdes con una cruz de color negro para hacer un zoom, en el botón verde con un guión para alejar o en las flechas verdes para mapas adyacentes.


METAR-TAF: